sensor_id;sensor_type;location;lat;lon;timestamp;pressure;altitude;pressure_sealevel;temperature;humidity
63607;BME280;51327;52.466;-1.938;2022-07-30T00:00:07;100072.94;;;16.24;69.21
63607;BME280;51327;52.466;-1.938;2022-07-30T00:02:34;100060.38;;;16.13;69.26
63607;BME280;51327;52.466;-1.938;2022-07-30T00:05:00;100014.69;;;15.79;69.60
63607;BME280;51327;52.466;-1.938;2022-07-30T00:07:28;100065.31;;;16.08;69.78
63607;BME280;51327;52.466;-1.938;2022-07-30T00:09:53;100085.97;;;16.07;69.97
63607;BME280;51327;52.466;-1.938;2022-07-30T00:12:19;99993.47;;;15.54;69.80
63607;BME280;51327;52.466;-1.938;2022-07-30T00:14:47;100076.84;;;15.99;70.11
63607;BME280;51327;52.466;-1.938;2022-07-30T00:17:14;100059.25;;;15.83;70.09
63607;BME280;51327;52.466;-1.938;2022-07-30T00:19:40;100069.66;;;15.88;70.71
63607;BME280;51327;52.466;-1.938;2022-07-30T00:22:06;100063.78;;;15.83;70.62
63607;BME280;51327;52.466;-1.938;2022-07-30T00:24:33;100074.69;;;15.81;70.74
63607;BME280;51327;52.466;-1.938;2022-07-30T00:26:59;100044.97;;;15.60;70.98
63607;BME280;51327;52.466;-1.938;2022-07-30T00:29:25;100068.09;;;15.74;70.84
63607;BME280;51327;52.466;-1.938;2022-07-30T00:31:53;100027.38;;;15.45;71.25
63607;BME280;51327;52.466;-1.938;2022-07-30T00:34:18;100064.78;;;15.71;71.66
63607;BME280;51327;52.466;-1.938;2022-07-30T00:36:44;100017.22;;;15.37;71.52
63607;BME280;51327;52.466;-1.938;2022-07-30T00:39:12;100065.00;;;15.68;71.70
63607;BME280;51327;52.466;-1.938;2022-07-30T00:41:59;100059.84;;;15.64;71.57
63607;BME280;51327;52.466;-1.938;2022-07-30T00:44:28;100067.22;;;15.62;72.17
63607;BME280;51327;52.466;-1.938;2022-07-30T00:46:55;100016.97;;;15.40;72.24
63607;BME280;51327;52.466;-1.938;2022-07-30T00:49:21;100052.53;;;15.55;72.23
63607;BME280;51327;52.466;-1.938;2022-07-30T00:51:50;100047.88;;;15.57;72.71
63607;BME280;51327;52.466;-1.938;2022-07-30T00:54:16;99976.03;;;15.14;72.45
63607;BME280;51327;52.466;-1.938;2022-07-30T00:56:42;99945.03;;;14.99;72.45
63607;BME280;51327;52.466;-1.938;2022-07-30T00:59:10;100023.44;;;15.49;72.95
63607;BME280;51327;52.466;-1.938;2022-07-30T01:01:36;99974.06;;;15.16;73.03
63607;BME280;51327;52.466;-1.938;2022-07-30T01:04:01;100044.69;;;15.63;73.11
63607;BME280;51327;52.466;-1.938;2022-07-30T01:06:29;100039.94;;;15.67;73.55
63607;BME280;51327;52.466;-1.938;2022-07-30T01:08:55;100047.88;;;15.69;73.28
63607;BME280;51327;52.466;-1.938;2022-07-30T01:11:23;100043.31;;;15.69;73.40
63607;BME280;51327;52.466;-1.938;2022-07-30T01:13:52;100013.28;;;15.53;73.43
63607;BME280;51327;52.466;-1.938;2022-07-30T01:16:18;100042.28;;;15.72;73.35
63607;BME280;51327;52.466;-1.938;2022-07-30T01:18:44;99993.50;;;15.42;73.31
63607;BME280;51327;52.466;-1.938;2022-07-30T01:21:36;100020.00;;;15.58;73.63
63607;BME280;51327;52.466;-1.938;2022-07-30T01:24:24;100027.09;;;15.71;73.54
63607;BME280;51327;52.466;-1.938;2022-07-30T01:26:54;99981.63;;;15.45;73.57
63607;BME280;51327;52.466;-1.938;2022-07-30T01:29:23;100038.09;;;15.79;73.37
63607;BME280;51327;52.466;-1.938;2022-07-30T01:31:51;100024.28;;;15.72;73.73
63607;BME280;51327;52.466;-1.938;2022-07-30T01:34:21;99987.94;;;15.55;73.70
63607;BME280;51327;52.466;-1.938;2022-07-30T01:36:50;99982.31;;;15.58;73.70
63607;BME280;51327;52.466;-1.938;2022-07-30T01:39:16;100017.41;;;15.79;73.64
63607;BME280;51327;52.466;-1.938;2022-07-30T01:41:45;100033.63;;;15.89;73.82
63607;BME280;51327;52.466;-1.938;2022-07-30T01:44:16;100029.97;;;15.90;73.98
63607;BME280;51327;52.466;-1.938;2022-07-30T01:46:42;100028.50;;;15.86;73.96
63607;BME280;51327;52.466;-1.938;2022-07-30T01:49:09;100028.88;;;15.93;73.76
63607;BME280;51327;52.466;-1.938;2022-07-30T01:51:37;99973.00;;;15.62;73.94
63607;BME280;51327;52.466;-1.938;2022-07-30T01:54:09;100029.44;;;15.96;74.00
63607;BME280;51327;52.466;-1.938;2022-07-30T01:56:37;100009.41;;;15.89;74.29
63607;BME280;51327;52.466;-1.938;2022-07-30T01:59:08;99985.34;;;15.76;74.06
63607;BME280;51327;52.466;-1.938;2022-07-30T02:01:34;100024.66;;;16.00;73.93
63607;BME280;51327;52.466;-1.938;2022-07-30T02:04:01;99983.25;;;15.80;74.10
63607;BME280;51327;52.466;-1.938;2022-07-30T02:07:02;100024.53;;;16.01;74.18
63607;BME280;51327;52.466;-1.938;2022-07-30T02:09:37;99994.16;;;15.78;74.33
63607;BME280;51327;52.466;-1.938;2022-07-30T02:12:10;100004.28;;;15.86;73.88
63607;BME280;51327;52.466;-1.938;2022-07-30T02:15:06;100029.56;;;16.06;74.47
63607;BME280;51327;52.466;-1.938;2022-07-30T02:17:47;100026.69;;;16.07;74.24
63607;BME280;51327;52.466;-1.938;2022-07-30T02:20:15;100016.47;;;16.01;74.36
63607;BME280;51327;52.466;-1.938;2022-07-30T02:22:45;100021.47;;;16.06;74.67
63607;BME280;51327;52.466;-1.938;2022-07-30T02:25:17;100004.22;;;15.97;74.66
63607;BME280;51327;52.466;-1.938;2022-07-30T02:27:53;100020.34;;;16.08;74.75
63607;BME280;51327;52.466;-1.938;2022-07-30T02:30:23;100031.59;;;16.14;74.26
63607;BME280;51327;52.466;-1.938;2022-07-30T02:33:01;99974.03;;;15.82;74.45
63607;BME280;51327;52.466;-1.938;2022-07-30T02:35:28;100026.94;;;16.16;74.70
63607;BME280;51327;52.466;-1.938;2022-07-30T02:37:57;100037.69;;;16.16;74.83
63607;BME280;51327;52.466;-1.938;2022-07-30T02:40:27;100011.81;;;16.03;74.49
63607;BME280;51327;52.466;-1.938;2022-07-30T02:42:53;100032.19;;;16.17;74.79
63607;BME280;51327;52.466;-1.938;2022-07-30T02:45:22;100033.03;;;16.18;74.88
63607;BME280;51327;52.466;-1.938;2022-07-30T02:47:56;100011.53;;;16.06;74.93
63607;BME280;51327;52.466;-1.938;2022-07-30T02:50:23;100002.38;;;15.98;74.91
63607;BME280;51327;52.466;-1.938;2022-07-30T02:52:53;99953.88;;;15.77;74.95
63607;BME280;51327;52.466;-1.938;2022-07-30T02:55:21;100004.41;;;16.05;75.20
63607;BME280;51327;52.466;-1.938;2022-07-30T02:57:50;99981.97;;;15.95;75.18
63607;BME280;51327;52.466;-1.938;2022-07-30T03:00:19;100009.06;;;16.15;75.26
63607;BME280;51327;52.466;-1.938;2022-07-30T03:02:46;99977.88;;;16.01;75.76
63607;BME280;51327;52.466;-1.938;2022-07-30T03:05:13;99985.25;;;15.99;75.66
63607;BME280;51327;52.466;-1.938;2022-07-30T03:07:42;99965.91;;;15.94;75.58
63607;BME280;51327;52.466;-1.938;2022-07-30T03:10:11;99967.09;;;15.80;75.80
63607;BME280;51327;52.466;-1.938;2022-07-30T03:12:39;99992.84;;;15.94;76.00
63607;BME280;51327;52.466;-1.938;2022-07-30T03:15:06;99989.81;;;15.87;75.66
63607;BME280;51327;52.466;-1.938;2022-07-30T03:17:37;100010.59;;;15.96;75.90
63607;BME280;51327;52.466;-1.938;2022-07-30T03:20:08;99990.75;;;15.76;76.22
63607;BME280;51327;52.466;-1.938;2022-07-30T03:22:39;99955.50;;;15.57;76.18
63607;BME280;51327;52.466;-1.938;2022-07-30T03:25:08;100005.84;;;15.89;75.87
63607;BME280;51327;52.466;-1.938;2022-07-30T03:27:37;100015.91;;;15.86;76.30
63607;BME280;51327;52.466;-1.938;2022-07-30T03:30:06;100023.41;;;15.83;76.54
63607;BME280;51327;52.466;-1.938;2022-07-30T03:32:33;99979.63;;;15.58;76.97
63607;BME280;51327;52.466;-1.938;2022-07-30T03:35:02;99985.34;;;15.65;76.99
63607;BME280;51327;52.466;-1.938;2022-07-30T03:37:29;100006.63;;;15.68;77.25
63607;BME280;51327;52.466;-1.938;2022-07-30T03:39:56;99998.31;;;15.60;77.48
63607;BME280;51327;52.466;-1.938;2022-07-30T03:42:25;100026.59;;;15.77;78.03
63607;BME280;51327;52.466;-1.938;2022-07-30T03:44:53;99937.38;;;15.27;78.04
63607;BME280;51327;52.466;-1.938;2022-07-30T03:47:21;99928.97;;;15.20;77.91
63607;BME280;51327;52.466;-1.938;2022-07-30T03:49:50;99970.97;;;15.43;77.98
63607;BME280;51327;52.466;-1.938;2022-07-30T03:52:18;99989.53;;;15.58;78.32
63607;BME280;51327;52.466;-1.938;2022-07-30T03:54:44;99894.16;;;14.96;78.22
63607;BME280;51327;52.466;-1.938;2022-07-30T03:57:12;100019.25;;;15.79;78.14
63607;BME280;51327;52.466;-1.938;2022-07-30T03:59:38;100014.81;;;15.78;78.01
63607;BME280;51327;52.466;-1.938;2022-07-30T04:02:04;99988.91;;;15.65;78.04
63607;BME280;51327;52.466;-1.938;2022-07-30T04:04:32;100008.59;;;15.77;78.03
63607;BME280;51327;52.466;-1.938;2022-07-30T04:06:58;99967.41;;;15.54;78.10
63607;BME280;51327;52.466;-1.938;2022-07-30T04:09:24;99979.47;;;15.60;77.98
63607;BME280;51327;52.466;-1.938;2022-07-30T04:11:51;99994.53;;;15.74;77.85
63607;BME280;51327;52.466;-1.938;2022-07-30T04:14:19;99988.28;;;15.73;77.83
63607;BME280;51327;52.466;-1.938;2022-07-30T04:19:35;99937.34;;;15.38;77.52
63607;BME280;51327;52.466;-1.938;2022-07-30T04:22:03;99983.44;;;15.56;77.58
63607;BME280;51327;52.466;-1.938;2022-07-30T04:24:32;100007.13;;;15.73;77.70
63607;BME280;51327;52.466;-1.938;2022-07-30T04:27:00;99973.75;;;15.53;77.65
63607;BME280;51327;52.466;-1.938;2022-07-30T04:29:26;100001.00;;;15.60;77.42
63607;BME280;51327;52.466;-1.938;2022-07-30T04:31:54;99983.03;;;15.60;77.24
63607;BME280;51327;52.466;-1.938;2022-07-30T04:34:22;99984.28;;;15.56;77.46
63607;BME280;51327;52.466;-1.938;2022-07-30T04:36:50;99956.31;;;15.36;77.44
63607;BME280;51327;52.466;-1.938;2022-07-30T04:39:18;100007.38;;;15.59;77.52
63607;BME280;51327;52.466;-1.938;2022-07-30T04:41:46;99997.47;;;15.59;77.46
63607;BME280;51327;52.466;-1.938;2022-07-30T04:44:11;99957.66;;;15.42;77.09
63607;BME280;51327;52.466;-1.938;2022-07-30T04:46:39;99986.94;;;15.68;77.01
63607;BME280;51327;52.466;-1.938;2022-07-30T04:49:04;99989.84;;;15.64;76.97
63607;BME280;51327;52.466;-1.938;2022-07-30T04:51:35;99972.28;;;15.60;76.97
63607;BME280;51327;52.466;-1.938;2022-07-30T04:54:06;99968.97;;;15.57;76.91
63607;BME280;51327;52.466;-1.938;2022-07-30T04:56:36;99979.25;;;15.63;76.75
63607;BME280;51327;52.466;-1.938;2022-07-30T04:59:05;99937.47;;;15.36;76.64
63607;BME280;51327;52.466;-1.938;2022-07-30T05:01:34;99926.97;;;15.33;76.63
63607;BME280;51327;52.466;-1.938;2022-07-30T05:04:04;99966.41;;;15.55;76.72
63607;BME280;51327;52.466;-1.938;2022-07-30T05:06:33;99921.97;;;15.29;76.49
63607;BME280;51327;52.466;-1.938;2022-07-30T05:08:58;99962.13;;;15.53;76.45
63607;BME280;51327;52.466;-1.938;2022-07-30T05:11:24;99945.13;;;15.52;76.88
63607;BME280;51327;52.466;-1.938;2022-07-30T05:13:52;100010.78;;;15.83;77.02
63607;BME280;51327;52.466;-1.938;2022-07-30T05:16:18;100006.84;;;15.88;77.35
63607;BME280;51327;52.466;-1.938;2022-07-30T05:18:44;99958.91;;;15.70;77.39
63607;BME280;51327;52.466;-1.938;2022-07-30T05:21:12;99923.97;;;15.48;77.55
63607;BME280;51327;52.466;-1.938;2022-07-30T05:23:38;99932.38;;;15.65;77.46
63607;BME280;51327;52.466;-1.938;2022-07-30T05:26:03;99925.13;;;15.66;77.56
63607;BME280;51327;52.466;-1.938;2022-07-30T05:28:31;99931.13;;;15.70;77.65
63607;BME280;51327;52.466;-1.938;2022-07-30T05:30:57;99973.59;;;15.98;78.34
63607;BME280;51327;52.466;-1.938;2022-07-30T05:33:23;99928.81;;;15.76;78.22
63607;BME280;51327;52.466;-1.938;2022-07-30T05:35:51;99955.03;;;15.95;78.59
63607;BME280;51327;52.466;-1.938;2022-07-30T05:38:16;99980.78;;;16.09;78.57
63607;BME280;51327;52.466;-1.938;2022-07-30T05:40:42;100008.28;;;16.24;79.08
63607;BME280;51327;52.466;-1.938;2022-07-30T05:43:11;99986.50;;;16.16;79.20
63607;BME280;51327;52.466;-1.938;2022-07-30T05:45:39;100003.34;;;16.29;79.18
63607;BME280;51327;52.466;-1.938;2022-07-30T05:48:05;99998.22;;;16.26;79.21
63607;BME280;51327;52.466;-1.938;2022-07-30T05:50:31;100014.31;;;16.37;79.45
63607;BME280;51327;52.466;-1.938;2022-07-30T05:52:59;100012.22;;;16.41;79.60
63607;BME280;51327;52.466;-1.938;2022-07-30T05:55:26;100005.47;;;16.46;79.63
63607;BME280;51327;52.466;-1.938;2022-07-30T05:57:52;99995.66;;;16.45;79.23
63607;BME280;51327;52.466;-1.938;2022-07-30T06:00:18;99957.81;;;16.26;78.86
63607;BME280;51327;52.466;-1.938;2022-07-30T06:02:45;100004.78;;;16.54;79.02
63607;BME280;51327;52.466;-1.938;2022-07-30T06:05:11;99979.41;;;16.36;78.67
63607;BME280;51327;52.466;-1.938;2022-07-30T06:07:37;99930.31;;;16.11;78.35
63607;BME280;51327;52.466;-1.938;2022-07-30T06:10:05;99918.38;;;16.04;78.19
63607;BME280;51327;52.466;-1.938;2022-07-30T06:12:33;99889.78;;;15.92;77.43
63607;BME280;51327;52.466;-1.938;2022-07-30T06:14:59;99995.28;;;16.60;77.69
63607;BME280;51327;52.466;-1.938;2022-07-30T06:17:24;99925.38;;;16.16;76.90
63607;BME280;51327;52.466;-1.938;2022-07-30T06:19:53;99958.03;;;16.44;76.81
63607;BME280;51327;52.466;-1.938;2022-07-30T06:22:19;99928.84;;;16.28;76.49
63607;BME280;51327;52.466;-1.938;2022-07-30T06:24:45;99934.25;;;16.28;76.48
63607;BME280;51327;52.466;-1.938;2022-07-30T06:27:12;99962.16;;;16.48;75.79
63607;BME280;51327;52.466;-1.938;2022-07-30T06:29:38;99984.38;;;16.61;75.22
63607;BME280;51327;52.466;-1.938;2022-07-30T06:32:04;99972.75;;;16.61;75.20
63607;BME280;51327;52.466;-1.938;2022-07-30T06:34:32;100007.31;;;16.77;75.34
63607;BME280;51327;52.466;-1.938;2022-07-30T06:37:00;99933.59;;;16.36;74.99
63607;BME280;51327;52.466;-1.938;2022-07-30T06:39:26;99949.28;;;16.52;74.74
63607;BME280;51327;52.466;-1.938;2022-07-30T06:41:51;100005.09;;;16.82;74.35
63607;BME280;51327;52.466;-1.938;2022-07-30T06:44:19;99970.50;;;16.66;73.85
63607;BME280;51327;52.466;-1.938;2022-07-30T06:46:45;99932.97;;;16.53;73.85
63607;BME280;51327;52.466;-1.938;2022-07-30T06:49:10;99969.81;;;16.74;73.09
63607;BME280;51327;52.466;-1.938;2022-07-30T06:51:39;100013.31;;;17.01;72.87
63607;BME280;51327;52.466;-1.938;2022-07-30T06:54:07;100010.44;;;17.03;72.68
63607;BME280;51327;52.466;-1.938;2022-07-30T06:56:34;100000.22;;;16.97;72.25
63607;BME280;51327;52.466;-1.938;2022-07-30T06:59:02;99998.25;;;16.99;71.77
63607;BME280;51327;52.466;-1.938;2022-07-30T07:01:29;99982.91;;;16.99;71.95
63607;BME280;51327;52.466;-1.938;2022-07-30T07:03:56;100009.06;;;17.08;72.72
63607;BME280;51327;52.466;-1.938;2022-07-30T07:06:22;99994.41;;;17.01;72.46
63607;BME280;51327;52.466;-1.938;2022-07-30T07:08:49;100001.53;;;17.12;72.97
63607;BME280;51327;52.466;-1.938;2022-07-30T07:11:15;99932.53;;;16.79;73.47
63607;BME280;51327;52.466;-1.938;2022-07-30T07:13:40;99944.78;;;16.83;74.00
63607;BME280;51327;52.466;-1.938;2022-07-30T07:16:08;99991.63;;;17.22;73.62
63607;BME280;51327;52.466;-1.938;2022-07-30T07:18:36;100007.03;;;17.41;73.63
63607;BME280;51327;52.466;-1.938;2022-07-30T07:21:01;100005.34;;;17.50;73.58
63607;BME280;51327;52.466;-1.938;2022-07-30T07:23:27;100000.25;;;17.57;73.47
63607;BME280;51327;52.466;-1.938;2022-07-30T07:25:55;99966.53;;;17.41;73.36
63607;BME280;51327;52.466;-1.938;2022-07-30T07:28:22;100004.81;;;17.75;73.24
63607;BME280;51327;52.466;-1.938;2022-07-30T07:30:50;99945.81;;;17.51;72.45
63607;BME280;51327;52.466;-1.938;2022-07-30T07:33:17;99988.50;;;17.87;72.69
63607;BME280;51327;52.466;-1.938;2022-07-30T07:35:46;99979.00;;;17.92;71.62
63607;BME280;51327;52.466;-1.938;2022-07-30T07:38:11;99953.81;;;17.82;71.51
63607;BME280;51327;52.466;-1.938;2022-07-30T07:40:37;99986.53;;;18.08;71.29
63607;BME280;51327;52.466;-1.938;2022-07-30T07:43:05;99990.06;;;18.19;71.22
63607;BME280;51327;52.466;-1.938;2022-07-30T07:45:32;99953.94;;;18.00;70.99
63607;BME280;51327;52.466;-1.938;2022-07-30T07:48:00;99966.88;;;18.16;70.98
63607;BME280;51327;52.466;-1.938;2022-07-30T07:50:28;99968.16;;;18.22;70.80
63607;BME280;51327;52.466;-1.938;2022-07-30T07:52:55;99940.00;;;18.14;70.74
63607;BME280;51327;52.466;-1.938;2022-07-30T07:55:21;99977.94;;;18.42;70.73
63607;BME280;51327;52.466;-1.938;2022-07-30T07:57:47;99967.28;;;18.31;70.29
63607;BME280;51327;52.466;-1.938;2022-07-30T08:00:16;99977.38;;;18.39;70.19
63607;BME280;51327;52.466;-1.938;2022-07-30T08:02:43;99992.44;;;18.41;69.93
63607;BME280;51327;52.466;-1.938;2022-07-30T08:05:12;99996.72;;;18.34;70.47
63607;BME280;51327;52.466;-1.938;2022-07-30T08:07:40;99949.97;;;18.04;71.15
63607;BME280;51327;52.466;-1.938;2022-07-30T08:10:09;99999.13;;;18.37;70.97
63607;BME280;51327;52.466;-1.938;2022-07-30T08:12:37;100007.38;;;18.45;71.21
63607;BME280;51327;52.466;-1.938;2022-07-30T08:15:05;99977.09;;;18.32;71.37
63607;BME280;51327;52.466;-1.938;2022-07-30T08:17:38;99981.22;;;18.36;71.26
63607;BME280;51327;52.466;-1.938;2022-07-30T08:20:06;100011.63;;;18.57;71.63
63607;BME280;51327;52.466;-1.938;2022-07-30T08:22:35;99989.44;;;18.54;71.54
63607;BME280;51327;52.466;-1.938;2022-07-30T08:25:03;99965.25;;;18.52;71.71
63607;BME280;51327;52.466;-1.938;2022-07-30T08:27:31;99982.44;;;18.81;71.10
63607;BME280;51327;52.466;-1.938;2022-07-30T08:29:58;99935.03;;;18.67;70.66
63607;BME280;51327;52.466;-1.938;2022-07-30T08:32:23;99996.94;;;19.17;69.87
63607;BME280;51327;52.466;-1.938;2022-07-30T08:34:51;99975.50;;;19.06;69.56
63607;BME280;51327;52.466;-1.938;2022-07-30T08:37:16;99993.22;;;19.18;69.72
63607;BME280;51327;52.466;-1.938;2022-07-30T08:39:42;99959.25;;;19.06;69.63
63607;BME280;51327;52.466;-1.938;2022-07-30T08:42:12;99967.75;;;19.11;69.17
63607;BME280;51327;52.466;-1.938;2022-07-30T08:44:40;100003.91;;;19.47;69.04
63607;BME280;51327;52.466;-1.938;2022-07-30T08:47:08;99994.00;;;19.56;68.78
63607;BME280;51327;52.466;-1.938;2022-07-30T08:49:37;99980.75;;;19.53;68.78
63607;BME280;51327;52.466;-1.938;2022-07-30T08:52:04;99971.25;;;19.49;68.54
63607;BME280;51327;52.466;-1.938;2022-07-30T08:54:29;99979.69;;;19.64;68.17
63607;BME280;51327;52.466;-1.938;2022-07-30T08:56:57;99986.22;;;19.71;68.20
63607;BME280;51327;52.466;-1.938;2022-07-30T08:59:26;99977.69;;;19.66;68.12
63607;BME280;51327;52.466;-1.938;2022-07-30T09:01:53;100009.53;;;19.81;68.24
63607;BME280;51327;52.466;-1.938;2022-07-30T09:04:21;99994.31;;;19.80;68.29
63607;BME280;51327;52.466;-1.938;2022-07-30T09:06:47;99977.88;;;19.82;68.56
63607;BME280;51327;52.466;-1.938;2022-07-30T09:09:12;99980.59;;;20.00;68.35
63607;BME280;51327;52.466;-1.938;2022-07-30T09:11:40;100011.31;;;20.27;68.35
63607;BME280;51327;52.466;-1.938;2022-07-30T09:14:09;100004.84;;;20.45;66.80
63607;BME280;51327;52.466;-1.938;2022-07-30T09:16:38;100002.47;;;20.60;67.04
63607;BME280;51327;52.466;-1.938;2022-07-30T09:19:15;99987.09;;;20.69;66.98
63607;BME280;51327;52.466;-1.938;2022-07-30T09:21:42;99927.09;;;20.54;65.75
63607;BME280;51327;52.466;-1.938;2022-07-30T09:24:10;99981.78;;;20.94;65.52
63607;BME280;51327;52.466;-1.938;2022-07-30T09:26:59;99993.25;;;21.14;65.43
63607;BME280;51327;52.466;-1.938;2022-07-30T09:29:27;99991.63;;;21.29;65.09
63607;BME280;51327;52.466;-1.938;2022-07-30T09:32:00;99954.25;;;21.23;64.55
63607;BME280;51327;52.466;-1.938;2022-07-30T09:34:30;99994.78;;;21.59;63.74
63607;BME280;51327;52.466;-1.938;2022-07-30T09:36:59;99988.22;;;21.69;63.44
63607;BME280;51327;52.466;-1.938;2022-07-30T09:39:28;100004.34;;;21.79;63.00
63607;BME280;51327;52.466;-1.938;2022-07-30T09:41:57;99948.78;;;21.65;63.33
63607;BME280;51327;52.466;-1.938;2022-07-30T09:44:24;99997.75;;;21.98;62.71
63607;BME280;51327;52.466;-1.938;2022-07-30T09:46:50;100000.81;;;22.11;63.27
63607;BME280;51327;52.466;-1.938;2022-07-30T09:49:20;100006.28;;;22.20;62.10
63607;BME280;51327;52.466;-1.938;2022-07-30T09:51:49;100010.19;;;22.25;61.85
63607;BME280;51327;52.466;-1.938;2022-07-30T09:54:17;99991.31;;;22.16;61.64
63607;BME280;51327;52.466;-1.938;2022-07-30T09:56:45;99993.19;;;22.15;61.32
63607;BME280;51327;52.466;-1.938;2022-07-30T09:59:28;99999.47;;;22.07;61.85
63607;BME280;51327;52.466;-1.938;2022-07-30T10:01:56;100003.53;;;21.87;61.58
63607;BME280;51327;52.466;-1.938;2022-07-30T10:04:30;99985.59;;;21.52;61.99
63607;BME280;51327;52.466;-1.938;2022-07-30T10:06:59;100005.66;;;21.51;63.26
63607;BME280;51327;52.466;-1.938;2022-07-30T10:09:30;99997.19;;;21.27;63.34
63607;BME280;51327;52.466;-1.938;2022-07-30T10:12:01;100026.72;;;21.22;63.52
63607;BME280;51327;52.466;-1.938;2022-07-30T10:14:33;100016.47;;;21.08;64.25
63607;BME280;51327;52.466;-1.938;2022-07-30T10:17:01;99982.34;;;20.71;64.79
63607;BME280;51327;52.466;-1.938;2022-07-30T10:19:27;99986.78;;;20.54;64.77
63607;BME280;51327;52.466;-1.938;2022-07-30T10:21:54;99952.47;;;20.19;65.69
63607;BME280;51327;52.466;-1.938;2022-07-30T10:24:26;99983.66;;;20.23;65.78
63607;BME280;51327;52.466;-1.938;2022-07-30T10:26:55;99922.84;;;19.81;66.24
63607;BME280;51327;52.466;-1.938;2022-07-30T10:29:26;99972.44;;;20.00;66.57
63607;BME280;51327;52.466;-1.938;2022-07-30T10:31:56;99955.03;;;19.85;67.22
63607;BME280;51327;52.466;-1.938;2022-07-30T10:34:21;99968.09;;;19.89;67.46
63607;BME280;51327;52.466;-1.938;2022-07-30T10:36:50;100015.72;;;20.10;68.17
63607;BME280;51327;52.466;-1.938;2022-07-30T10:39:24;99997.41;;;20.03;68.26
63607;BME280;51327;52.466;-1.938;2022-07-30T10:47:51;99995.66;;;20.38;68.73
63607;BME280;51327;52.466;-1.938;2022-07-30T10:50:23;100014.44;;;20.76;68.26
63607;BME280;51327;52.466;-1.938;2022-07-30T10:52:56;100003.13;;;20.89;68.16
63607;BME280;51327;52.466;-1.938;2022-07-30T10:55:26;99959.50;;;20.82;67.12
63607;BME280;51327;52.466;-1.938;2022-07-30T10:58:03;99979.47;;;21.07;66.25
63607;BME280;51327;52.466;-1.938;2022-07-30T11:01:13;99926.47;;;20.95;66.11
63607;BME280;51327;52.466;-1.938;2022-07-30T11:03:27;100003.31;;;21.30;66.17
63607;BME280;51327;52.466;-1.938;2022-07-30T11:08:43;99988.97;;;21.03;66.48
63607;BME280;51327;52.466;-1.938;2022-07-30T11:16:56;99997.91;;;20.95;66.83
63607;BME280;51327;52.466;-1.938;2022-07-30T11:19:16;100015.53;;;20.91;67.02
63607;BME280;51327;52.466;-1.938;2022-07-30T11:21:45;100013.47;;;20.85;67.92
63607;BME280;51327;52.466;-1.938;2022-07-30T11:24:46;100003.66;;;20.92;67.98
63607;BME280;51327;52.466;-1.938;2022-07-30T11:27:41;100004.09;;;21.14;67.51
63607;BME280;51327;52.466;-1.938;2022-07-30T11:32:44;99994.88;;;21.33;67.10
63607;BME280;51327;52.466;-1.938;2022-07-30T11:38:10;99928.84;;;20.90;66.78
63607;BME280;51327;52.466;-1.938;2022-07-30T11:48:38;99998.00;;;21.54;66.32
63607;BME280;51327;52.466;-1.938;2022-07-30T11:51:06;99979.75;;;21.38;66.81
63607;BME280;51327;52.466;-1.938;2022-07-30T11:53:31;99999.69;;;21.47;66.83
63607;BME280;51327;52.466;-1.938;2022-07-30T11:55:59;100008.81;;;21.38;67.03
63607;BME280;51327;52.466;-1.938;2022-07-30T11:58:31;100014.72;;;21.33;67.17
63607;BME280;51327;52.466;-1.938;2022-07-30T12:00:59;100020.31;;;21.32;67.37
63607;BME280;51327;52.466;-1.938;2022-07-30T12:03:26;100022.88;;;21.33;67.43
63607;BME280;51327;52.466;-1.938;2022-07-30T12:05:54;100011.38;;;21.39;67.63
63607;BME280;51327;52.466;-1.938;2022-07-30T12:08:21;100001.03;;;21.43;67.38
63607;BME280;51327;52.466;-1.938;2022-07-30T12:10:59;100012.44;;;21.55;67.27
63607;BME280;51327;52.466;-1.938;2022-07-30T12:13:27;99957.00;;;21.31;66.49
63607;BME280;51327;52.466;-1.938;2022-07-30T12:15:53;99990.69;;;21.55;67.25
63607;BME280;51327;52.466;-1.938;2022-07-30T12:18:29;99955.31;;;21.38;66.49
63607;BME280;51327;52.466;-1.938;2022-07-30T12:20:59;99995.97;;;21.56;66.78
63607;BME280;51327;52.466;-1.938;2022-07-30T12:23:27;99975.78;;;21.51;66.35
63607;BME280;51327;52.466;-1.938;2022-07-30T12:25:55;99943.28;;;21.41;67.12
63607;BME280;51327;52.466;-1.938;2022-07-30T12:28:26;99889.44;;;21.28;67.19
63607;BME280;51327;52.466;-1.938;2022-07-30T12:31:08;99969.88;;;22.04;65.73
63607;BME280;51327;52.466;-1.938;2022-07-30T12:33:37;99991.69;;;22.29;65.45
63607;BME280;51327;52.466;-1.938;2022-07-30T12:36:03;99981.66;;;22.29;64.80
63607;BME280;51327;52.466;-1.938;2022-07-30T12:38:28;99939.97;;;22.21;64.44
63607;BME280;51327;52.466;-1.938;2022-07-30T12:41:01;99957.66;;;22.41;64.65
63607;BME280;51327;52.466;-1.938;2022-07-30T12:48:58;99983.84;;;22.34;64.48
63607;BME280;51327;52.466;-1.938;2022-07-30T12:51:33;99931.28;;;21.84;65.00
63607;BME280;51327;52.466;-1.938;2022-07-30T12:54:00;99975.16;;;22.06;64.62
63607;BME280;51327;52.466;-1.938;2022-07-30T12:56:29;99963.94;;;22.01;65.00
63607;BME280;51327;52.466;-1.938;2022-07-30T12:58:58;99969.72;;;22.06;64.52
63607;BME280;51327;52.466;-1.938;2022-07-30T13:04:07;99982.16;;;22.17;65.00
63607;BME280;51327;52.466;-1.938;2022-07-30T13:06:35;99978.75;;;22.15;65.31
63607;BME280;51327;52.466;-1.938;2022-07-30T13:09:03;99974.16;;;22.31;64.90
63607;BME280;51327;52.466;-1.938;2022-07-30T13:11:43;99963.28;;;22.40;65.11
63607;BME280;51327;52.466;-1.938;2022-07-30T13:14:12;99969.69;;;22.63;64.48
63607;BME280;51327;52.466;-1.938;2022-07-30T13:16:42;99949.28;;;22.59;64.29
63607;BME280;51327;52.466;-1.938;2022-07-30T13:19:10;99958.31;;;22.60;64.21
63607;BME280;51327;52.466;-1.938;2022-07-30T13:21:41;99970.38;;;22.65;64.24
63607;BME280;51327;52.466;-1.938;2022-07-30T13:24:12;99972.47;;;22.55;64.69
63607;BME280;51327;52.466;-1.938;2022-07-30T13:26:38;99923.16;;;22.17;65.03
63607;BME280;51327;52.466;-1.938;2022-07-30T13:29:03;99973.16;;;22.33;65.67
63607;BME280;51327;52.466;-1.938;2022-07-30T13:31:32;99954.09;;;22.08;65.74